Terminal Aerodrome Forecast
Issued by NWS

Home | Current Version | Previous Version | Text Only | Print | Product List | Glossary On
Versions: 1 2 3 4 5 6 7 8 9 10 11 12 13 14 15 16 17 18 19 20 21 22 23 24 25 26 27
000
FTPQ31 PGUM 251127
TAFGUM
TAF

TAF
PGSN 251127Z 2512/2612 12009KT P6SM VCSH SCT025 SCT050
     FM251500 09011KT P6SM VCTS SCT020CB SCT050 BKN120
      TEMPO 2515/2519 3SM SHRA BKN020 OVC050
     FM252100 09011KT P6SM VCSH SCT020 SCT120=

USA.gov is the U.S. government's official web portal to all federal, state and local government web resources and services.